Terminal Aerodrome Forecast
Issued by NWS

Home | Current Version | Previous Version | Text Only | Print | Product List | Glossary On
Versions: 1 2 3 4 5 6 7 8 9 10 11 12 13 14 15 16 17 18 19 20 21 22 23 24 25 26 27 28 29 30 31 32 33 34 35 36
000
FTUS45 KGJT 291528 AAA
TAFEGE
TAF AMD
KEGE 291528Z 2915/3012 00000KT 6SM -SN BR SCT015 BKN030 OVC045
      TEMPO 2915/2917 2SM -SN BR OVC025
     FM291800 VRB03KT 4SM -SN BR SCT025 BKN035 OVC060
     FM300400 VRB02KT 4SM BR SCT012 BKN040 OVC060=

USA.gov is the U.S. government's official web portal to all federal, state and local government web resources and services.